Time;durP1;ratioP1;P1;durP2;ratioP2;P2;SDS_P1;SDS_P2;PMS_P1;PMS_P2;Temp;Humidity;BMP_temperature;BMP_pressure;BME280_temperature;BME280_humidity;BME280_pressure;Samples;Min_cycle;Max_cycle;Signal;HPM_P1;HPM_P2
2021/12/31 12:35:32;;;;;;;5.10;2.33;;;14.00;99.90;;;;;;4955454;29;20059;-89
2021/12/31 12:38:03;;;;;;;;;;;14.00;99.90;;;;;;4956336;28;20035;-89
2021/12/31 12:40:55;;;;;;;5.85;2.00;;;14.10;99.90;;;;;;4932736;29;19918;-89
2021/12/31 12:43:21;;;;;;;6.75;2.00;;;14.10;99.90;;;;;;4936555;29;20481;-89
2021/12/31 12:46:04;;;;;;;5.45;2.40;;;14.10;99.90;;;;;;4936628;29;20409;-91
2021/12/31 12:48:29;;;;;;;8.82;3.03;;;14.10;99.90;;;;;;4952324;28;20024;-90
2021/12/31 12:50:58;;;;;;;7.85;3.25;;;14.10;99.90;;;;;;4935991;29;20233;-89
2021/12/31 12:53:27;;;;;;;7.05;3.17;;;14.10;99.90;;;;;;4952278;28;20126;-90
2021/12/31 12:56:05;;;;;;;;;;;14.10;99.90;;;;;;4936347;29;20035;-91
2021/12/31 12:58:31;;;;;;;6.60;2.80;;;14.00;99.90;;;;;;4952133;29;20369;-90
2021/12/31 13:01:02;;;;;;;6.88;3.45;;;14.10;99.90;;;;;;4951774;28;20293;-90
2021/12/31 13:03:29;;;;;;;6.88;3.45;;;14.00;99.90;;;;;;4936051;29;20095;-90
2021/12/31 13:06:07;;;;;;;6.85;3.60;;;14.00;99.90;;;;;;4951566;28;20046;-90
2021/12/31 13:08:33;;;;;;;8.18;3.63;;;14.00;99.90;;;;;;4935716;29;20039;-91
2021/12/31 13:11:00;;;;;;;6.22;2.97;;;14.00;99.90;;;;;;4951673;28;20095;-90
2021/12/31 13:13:30;;;;;;;6.18;3.03;;;14.00;99.90;;;;;;4951757;28;20395;-90
2021/12/31 13:15:56;;;;;;;9.25;3.13;;;14.00;99.90;;;;;;4951574;29;20032;-89
2021/12/31 13:18:35;;;;;;;7.55;3.58;;;14.00;99.90;;;;;;4951811;29;20031;-90
2021/12/31 13:21:06;;;;;;;8.55;3.50;;;14.10;99.90;;;;;;4951618;28;20482;-91
2021/12/31 13:23:33;;;;;;;7.57;3.58;;;14.10;99.90;;;;;;4951491;28;20086;-90
2021/12/31 13:26:13;;;;;;;6.18;2.78;;;14.10;99.90;;;;;;4951545;29;20501;-89
2021/12/31 13:28:41;;;;;;;8.32;3.97;;;14.10;99.90;;;;;;4935562;29;20112;-89
2021/12/31 13:31:10;;;;;;;9.00;2.72;;;14.10;99.90;;;;;;4951438;28;20042;-90
2021/12/31 13:33:47;;;;;;;7.43;3.85;;;14.10;99.90;;;;;;4951230;28;20090;-89
2021/12/31 13:36:19;;;;;;;7.88;3.25;;;14.20;99.90;;;;;;4951351;29;20036;-90
2021/12/31 13:39:05;;;;;;;4.50;2.22;;;14.20;99.90;;;;;;4935176;29;20486;-89
2021/12/31 13:41:46;;;;;;;7.13;2.83;;;14.20;99.90;;;;;;4951141;28;20075;-90
2021/12/31 13:44:14;;;;;;;7.13;2.70;;;14.30;99.90;;;;;;4935168;29;20039;-89
2021/12/31 13:46:45;;;;;;;6.80;2.22;;;14.30;99.90;;;;;;4951142;28;20546;-90
2021/12/31 13:49:17;;;;;;;5.45;2.60;;;14.30;99.90;;;;;;4935182;29;20024;-89
2021/12/31 13:51:43;;;;;;;7.43;3.20;;;14.30;99.90;;;;;;4934912;29;20490;-89
2021/12/31 13:54:12;;;;;;;6.95;2.80;;;14.30;99.90;;;;;;4950949;29;20035;-90
2021/12/31 13:56:55;;;;;;;4.30;2.13;;;14.30;99.90;;;;;;4950970;29;20482;-89
2021/12/31 13:59:34;;;;;;;5.60;2.50;;;14.30;99.90;;;;;;4935254;29;20091;-90
2021/12/31 14:02:15;;;;;;;11.45;2.50;;;14.20;99.90;;;;;;4950827;28;20135;-89
2021/12/31 14:05:18;;;;;;;4.60;2.30;;;14.30;99.90;;;;;;4950766;29;20046;-90
2021/12/31 14:10:26;;;;;;;5.80;2.03;;;14.30;99.90;;;;;;4934688;29;20036;-90
2021/12/31 14:12:58;;;;;;;5.00;2.13;;;14.30;99.90;;;;;;4950657;28;20028;-90
2021/12/31 14:15:32;;;;;;;4.47;2.25;;;14.40;99.90;;;;;;4934788;29;20118;-90
2021/12/31 14:17:59;;;;;;;4.35;2.10;;;14.30;99.90;;;;;;4950828;29;20040;-90
2021/12/31 14:20:29;;;;;;;3.60;1.90;;;14.20;99.90;;;;;;4950450;28;20044;-90
2021/12/31 14:22:55;;;;;;;4.90;2.03;;;14.20;99.90;;;;;;4950639;29;20039;-89
2021/12/31 14:25:24;;;;;;;4.35;2.30;;;14.20;99.90;;;;;;4950493;29;20119;-89
2021/12/31 14:27:55;;;;;;;5.30;2.20;;;14.20;99.90;;;;;;4934026;29;20043;-90
2021/12/31 14:30:26;;;;;;;5.93;2.20;;;14.20;99.90;;;;;;4950444;28;20545;-90
2021/12/31 14:32:58;;;;;;;5.80;2.72;;;14.20;99.90;;;;;;4950102;29;20032;-90
2021/12/31 14:35:33;;;;;;;8.65;3.22;;;14.20;99.90;;;;;;4918714;29;20036;-90
2021/12/31 14:38:09;;;;;;;7.18;3.53;;;14.20;99.90;;;;;;4934589;29;20044;-90
2021/12/31 14:40:37;;;;;;;5.15;2.00;;;14.20;99.90;;;;;;4949946;28;20067;-90
2021/12/31 14:43:12;;;;;;;9.32;2.33;;;14.20;99.90;;;;;;4949766;29;20118;-90
2021/12/31 14:45:38;;;;;;;5.57;2.33;;;14.20;99.90;;;;;;4934477;29;20039;-90
2021/12/31 14:48:05;;;;;;;7.55;3.20;;;14.20;99.90;;;;;;4950003;28;20075;-89
2021/12/31 14:50:36;;;;;;;6.22;2.90;;;14.30;99.90;;;;;;4949888;28;20482;-90
2021/12/31 14:53:05;;;;;;;7.80;2.83;;;14.30;99.90;;;;;;4933473;29;20446;-89
2021/12/31 14:55:34;;;;;;;7.72;2.35;;;14.30;99.90;;;;;;4934306;29;20123;-90
2021/12/31 14:58:00;;;;;;;4.22;2.17;;;14.30;99.90;;;;;;4949932;28;20035;-91
2021/12/31 15:00:28;;;;;;;7.75;2.80;;;14.30;99.90;;;;;;4949804;28;20035;-90
2021/12/31 15:03:00;;;;;;;7.53;2.50;;;14.30;99.90;;;;;;4950051;28;20040;-91
2021/12/31 15:05:26;;;;;;;7.50;2.78;;;14.30;99.90;;;;;;4918258;29;20035;-89
2021/12/31 15:07:53;;;;;;;5.80;2.92;;;14.30;99.90;;;;;;4949987;28;20099;-90
2021/12/31 15:10:20;;;;;;;5.45;2.53;;;14.20;99.90;;;;;;4949265;28;20083;-90
2021/12/31 15:12:50;;;;;;;5.15;2.40;;;14.20;99.90;;;;;;4950416;28;20028;-90
2021/12/31 15:15:16;;;;;;;7.20;2.45;;;14.30;99.90;;;;;;4918537;29;20043;-90
2021/12/31 15:17:46;;;;;;;6.45;2.20;;;14.20;99.90;;;;;;4933814;29;20439;-89
2021/12/31 15:20:15;;;;;;;6.72;2.17;;;14.30;99.90;;;;;;4949817;28;20406;-90
2021/12/31 15:22:42;;;;;;;6.72;2.60;;;14.20;99.90;;;;;;4934060;29;20028;-90
2021/12/31 15:25:12;;;;;;;5.47;2.22;;;14.20;99.90;;;;;;4918381;29;20398;-90
2021/12/31 15:27:43;;;;;;;6.85;3.00;;;14.20;99.90;;;;;;4919036;29;20059;-90
2021/12/31 15:30:12;;;;;;;8.13;3.35;;;14.20;99.90;;;;;;4949699;28;20036;-90
2021/12/31 15:32:39;;;;;;;5.43;2.90;;;14.10;99.90;;;;;;4949840;28;20035;-90
2021/12/31 15:35:10;;;;;;;3.97;2.05;;;14.20;99.90;;;;;;4949547;28;20031;-90
2021/12/31 15:37:42;;;;;;;6.43;2.50;;;14.20;99.90;;;;;;4949463;29;20047;-90
2021/12/31 15:40:09;;;;;;;5.60;2.90;;;14.20;99.90;;;;;;4950075;28;20031;-90
2021/12/31 15:42:34;;;;;;;5.40;2.67;;;14.30;99.90;;;;;;4953771;28;20458;-89
2021/12/31 15:45:00;;;;;;;6.15;3.00;;;14.30;99.90;;;;;;4937548;29;20123;-90
2021/12/31 15:47:29;;;;;;;7.75;2.58;;;14.30;99.90;;;;;;4937407;29;20036;-90
2021/12/31 15:49:55;;;;;;;7.43;3.47;;;14.20;99.90;;;;;;4953545;28;20160;-90
2021/12/31 15:52:21;;;;;;;8.77;3.83;;;14.20;99.90;;;;;;4953851;28;20040;-90
2021/12/31 15:54:47;;;;;;;8.85;3.47;;;14.20;99.90;;;;;;4922243;29;20143;-90
2021/12/31 15:57:16;;;;;;;6.15;2.38;;;14.20;99.90;;;;;;4953858;28;20071;-90
2021/12/31 15:59:44;;;;;;;8.60;3.20;;;14.20;99.90;;;;;;4937752;29;20069;-89
2021/12/31 16:02:12;;;;;;;9.88;2.90;;;14.30;99.90;;;;;;4953768;28;20031;-90
2021/12/31 16:04:38;;;;;;;6.10;2.78;;;14.20;99.90;;;;;;4906669;29;20039;-90
2021/12/31 16:07:06;;;;;;;7.70;3.00;;;14.20;99.90;;;;;;4954734;28;20340;-90
2021/12/31 16:09:32;;;;;;;5.47;2.45;;;14.20;99.90;;;;;;4955755;28;20510;-90
2021/12/31 16:11:58;;;;;;;7.93;2.88;;;14.10;99.90;;;;;;4938642;29;20032;-89
2021/12/31 16:14:26;;;;;;;7.53;3.08;;;14.10;99.90;;;;;;4938019;29;20118;-90
2021/12/31 16:16:54;;;;;;;9.02;3.25;;;14.10;99.90;;;;;;4937300;29;20088;-90
2021/12/31 16:19:20;;;;;;;6.10;2.33;;;14.00;99.90;;;;;;4952940;28;20115;-90
2021/12/31 16:21:53;;;;;;;7.10;3.03;;;14.10;99.90;;;;;;4936767;29;20028;-90
2021/12/31 16:24:20;;;;;;;7.70;3.42;;;14.10;99.90;;;;;;4953190;29;20040;-91
2021/12/31 16:26:47;;;;;;;7.70;3.28;;;14.00;99.90;;;;;;4952412;28;20031;-90
2021/12/31 16:29:16;;;;;;;11.88;5.05;;;14.00;99.90;;;;;;4952986;28;20028;-90
2021/12/31 16:31:43;;;;;;;11.60;5.63;;;14.00;99.90;;;;;;4953624;28;20036;-91
2021/12/31 16:34:11;;;;;;;10.25;4.80;;;14.00;99.90;;;;;;4937207;29;20042;-90
2021/12/31 16:36:37;;;;;;;12.00;5.50;;;14.00;99.90;;;;;;4937662;29;20036;-91
2021/12/31 16:39:04;;;;;;;9.55;3.95;;;14.00;99.90;;;;;;4953507;28;20119;-91
2021/12/31 16:41:32;;;;;;;11.90;3.30;;;14.10;99.90;;;;;;4936844;29;20043;-90
2021/12/31 16:44:01;;;;;;;6.93;3.58;;;14.10;99.90;;;;;;4936571;29;20028;-90
2021/12/31 16:46:26;;;;;;;5.80;3.47;;;14.10;99.90;;;;;;4936329;29;20542;-91
2021/12/31 16:48:52;;;;;;;12.30;4.20;;;14.00;99.90;;;;;;4936160;29;20091;-91
2021/12/31 16:51:18;;;;;;;6.95;3.33;;;14.00;99.90;;;;;;4935944;29;20031;-91
2021/12/31 16:53:44;;;;;;;10.40;5.00;;;14.00;99.90;;;;;;4936122;29;20397;-91
2021/12/31 16:56:09;;;;;;;10.05;4.00;;;14.00;99.90;;;;;;4936133;29;20080;-91
2021/12/31 16:58:35;;;;;;;9.50;4.65;;;14.00;99.90;;;;;;4936272;29;20059;-90
2021/12/31 17:01:01;;;;;;;9.38;4.85;;;14.00;99.90;;;;;;4935941;29;20035;-91
2021/12/31 17:03:27;;;;;;;9.05;3.90;;;14.00;99.90;;;;;;4935957;29;20508;-91
2021/12/31 17:05:53;;;;;;;11.20;5.03;;;14.00;99.90;;;;;;4935994;29;20039;-91
2021/12/31 17:08:19;;;;;;;9.02;5.07;;;14.00;99.90;;;;;;4935878;29;20024;-91
2021/12/31 17:10:46;;;;;;;10.10;5.72;;;14.00;99.90;;;;;;4935774;29;20036;-91
2021/12/31 17:13:12;;;;;;;9.07;4.72;;;14.00;99.90;;;;;;4951904;28;20043;-91
2021/12/31 17:15:38;;;;;;;11.85;5.43;;;14.00;99.90;;;;;;4951773;28;20035;-91
2021/12/31 17:18:04;;;;;;;10.85;5.35;;;14.00;99.90;;;;;;4951611;29;20059;-92
2021/12/31 17:20:31;;;;;;;10.25;4.75;;;13.90;99.90;;;;;;4951924;28;20036;-91
2021/12/31 17:22:58;;;;;;;8.85;4.03;;;13.80;99.90;;;;;;4935551;29;20034;-91
2021/12/31 17:25:24;;;;;;;7.55;4.00;;;13.80;99.90;;;;;;4951582;29;20032;-91
2021/12/31 17:27:50;;;;;;;9.00;4.50;;;13.80;99.90;;;;;;4935392;29;20039;-91
2021/12/31 17:30:16;;;;;;;12.15;5.25;;;13.70;99.90;;;;;;4951457;28;20431;-91
2021/12/31 17:32:43;;;;;;;10.43;5.03;;;13.70;99.90;;;;;;4951438;28;20027;-91
2021/12/31 17:35:10;;;;;;;8.60;4.22;;;13.70;99.90;;;;;;4951183;28;20040;-91
2021/12/31 17:37:39;;;;;;;8.85;4.95;;;13.70;99.90;;;;;;4951247;29;20024;-91
2021/12/31 17:40:06;;;;;;;10.60;4.80;;;13.70;99.90;;;;;;4951113;28;20550;-90
2021/12/31 17:42:32;;;;;;;7.20;4.03;;;13.70;99.90;;;;;;4951280;28;20091;-91
2021/12/31 17:44:59;;;;;;;9.73;4.32;;;13.70;99.90;;;;;;4935212;29;20036;-91
2021/12/31 17:47:24;;;;;;;8.50;4.40;;;13.70;99.90;;;;;;4951208;28;20039;-90
2021/12/31 17:49:50;;;;;;;7.70;5.03;;;13.70;99.90;;;;;;4935012;29;20038;-90
2021/12/31 17:52:17;;;;;;;7.30;4.70;;;13.70;99.90;;;;;;4935325;29;20038;-90
2021/12/31 17:54:43;;;;;;;14.93;6.22;;;13.60;99.90;;;;;;4951205;29;20493;-90
2021/12/31 17:57:09;;;;;;;12.18;5.60;;;13.70;99.90;;;;;;4934940;29;20441;-91
2021/12/31 17:59:36;;;;;;;9.18;5.20;;;13.70;99.90;;;;;;4919234;29;20062;-91
2021/12/31 18:02:03;;;;;;;7.43;5.05;;;13.60;99.90;;;;;;4950801;28;20035;-91
2021/12/31 18:04:28;;;;;;;7.65;5.20;;;13.60;99.90;;;;;;4950178;28;20046;-90
2021/12/31 18:06:54;;;;;;;11.55;5.07;;;13.60;99.90;;;;;;4935330;29;20040;-91
2021/12/31 18:09:20;;;;;;;8.20;5.00;;;13.60;99.90;;;;;;4935070;29;20036;-91
2021/12/31 18:11:46;;;;;;;10.15;4.57;;;13.60;99.90;;;;;;4934705;29;20028;-91
2021/12/31 18:14:12;;;;;;;9.75;5.35;;;13.60;99.90;;;;;;4934743;29;20103;-91
2021/12/31 18:16:37;;;;;;;11.20;5.95;;;13.60;99.90;;;;;;4950689;29;20513;-91
2021/12/31 18:19:03;;;;;;;12.50;6.32;;;13.60;99.90;;;;;;4935003;29;20260;-91
2021/12/31 18:21:29;;;;;;;12.05;5.93;;;13.60;99.90;;;;;;4934648;29;20070;-90
2021/12/31 18:23:55;;;;;;;11.98;6.63;;;13.60;99.90;;;;;;4934517;29;20067;-91
2021/12/31 18:26:21;;;;;;;11.40;6.22;;;13.60;99.90;;;;;;4950474;29;20059;-91
2021/12/31 18:28:47;;;;;;;12.85;5.68;;;13.60;99.90;;;;;;4934488;29;20027;-91
2021/12/31 18:31:15;;;;;;;10.13;5.82;;;13.60;99.90;;;;;;4934331;29;20027;-91
2021/12/31 20:08:01;;;;;;;10.73;5.13;;;13.70;99.90;;;;;;4958434;29;20505;-91
2021/12/31 20:10:27;;;;;;;13.63;6.13;;;13.60;99.90;;;;;;4942752;29;20052;-90
2021/12/31 20:12:53;;;;;;;11.38;5.30;;;13.60;99.90;;;;;;4927176;29;20023;-90
2021/12/31 20:15:20;;;;;;;9.25;5.53;;;13.70;99.90;;;;;;4925862;29;20144;-89
2021/12/31 20:17:46;;;;;;;12.52;6.13;;;13.60;99.90;;;;;;4951300;28;20091;-90
2021/12/31 20:20:14;;;;;;;10.90;5.53;;;13.60;99.90;;;;;;4949887;29;20098;-91
2021/12/31 20:22:41;;;;;;;10.27;5.00;;;13.60;99.90;;;;;;4933830;29;20032;-90
2021/12/31 20:25:09;;;;;;;10.55;5.30;;;13.60;99.90;;;;;;4933473;29;20401;-90
2021/12/31 20:27:36;;;;;;;10.98;5.50;;;13.60;99.90;;;;;;4935740;29;20031;-90
2021/12/31 20:30:07;;;;;;;11.60;5.15;;;13.60;99.90;;;;;;4937152;29;20255;-90
2021/12/31 20:32:35;;;;;;;10.05;5.25;;;13.60;99.90;;;;;;4936909;29;20122;-90
2021/12/31 20:35:01;;;;;;;10.52;5.28;;;13.60;99.90;;;;;;4952682;28;20168;-90
2021/12/31 20:37:27;;;;;;;11.05;4.68;;;13.60;99.90;;;;;;4952672;28;20040;-90
2021/12/31 20:39:53;;;;;;;10.25;4.68;;;13.60;99.90;;;;;;4936708;29;20031;-90
2021/12/31 20:42:19;;;;;;;8.75;4.95;;;13.60;99.90;;;;;;4952930;28;20040;-90
2021/12/31 20:44:46;;;;;;;8.90;4.60;;;13.60;99.90;;;;;;4936938;29;20071;-90
2021/12/31 20:47:12;;;;;;;9.05;4.13;;;13.70;99.90;;;;;;4952308;28;20036;-90
2021/12/31 20:49:38;;;;;;;9.35;4.55;;;13.60;99.90;;;;;;4936680;29;20035;-90
2021/12/31 20:52:04;;;;;;;9.15;4.72;;;13.60;99.90;;;;;;4936519;29;20494;-90
2021/12/31 20:54:31;;;;;;;10.18;4.88;;;13.60;99.90;;;;;;4952270;28;20445;-91
2021/12/31 20:56:58;;;;;;;21.45;10.98;;;13.60;99.90;;;;;;4952295;28;20557;-90
2021/12/31 20:59:25;;;;;;;14.80;8.25;;;13.60;99.90;;;;;;4936231;29;20707;-90
2021/12/31 21:01:52;;;;;;;13.18;7.43;;;13.60;99.90;;;;;;4952301;28;20458;-90
2021/12/31 21:04:18;;;;;;;10.95;5.93;;;13.60;99.90;;;;;;4952490;28;20071;-90
2021/12/31 21:06:44;;;;;;;12.57;5.65;;;13.60;99.90;;;;;;4936348;29;20042;-89
2021/12/31 21:09:10;;;;;;;12.45;5.22;;;13.60;99.90;;;;;;4936183;29;20035;-90
2021/12/31 21:11:36;;;;;;;12.70;6.70;;;13.70;99.90;;;;;;4936169;29;20404;-90
2021/12/31 21:14:02;;;;;;;11.70;6.20;;;13.60;99.90;;;;;;4935877;29;20027;-90
2021/12/31 21:16:29;;;;;;;11.55;5.70;;;13.70;99.90;;;;;;4936038;29;20036;-90
2021/12/31 21:18:55;;;;;;;10.73;5.40;;;13.70;99.90;;;;;;4952101;28;20036;-90
2021/12/31 21:21:21;;;;;;;10.27;5.30;;;13.70;99.90;;;;;;4935914;29;20505;-90
2021/12/31 21:23:48;;;;;;;11.77;5.38;;;13.70;99.90;;;;;;4951783;28;20031;-89
2021/12/31 21:26:14;;;;;;;11.85;6.05;;;13.70;99.90;;;;;;4951791;29;20028;-90
2021/12/31 21:28:40;;;;;;;13.40;6.22;;;13.70;99.90;;;;;;4935973;29;20375;-90
2021/12/31 21:31:06;;;;;;;10.93;5.53;;;13.70;99.90;;;;;;4935756;29;20561;-90
2021/12/31 21:33:32;;;;;;;10.73;5.80;;;13.70;99.90;;;;;;4935490;29;20123;-90
2021/12/31 21:35:57;;;;;;;9.85;6.28;;;13.70;99.90;;;;;;4935756;29;20115;-89
2021/12/31 21:38:23;;;;;;;11.68;5.63;;;13.60;99.90;;;;;;4934845;29;20062;-90
2021/12/31 21:40:52;;;;;;;11.60;5.97;;;13.60;99.90;;;;;;4935549;29;20032;-90
2021/12/31 21:43:18;;;;;;;;;;;13.60;99.90;;;;;;4951708;28;20097;-89
2021/12/31 21:45:45;;;;;;;12.77;6.28;;;13.60;99.90;;;;;;4935877;29;19911;-90
2021/12/31 21:48:12;;;;;;;13.38;6.85;;;13.60;99.90;;;;;;4951344;28;20036;-91
2021/12/31 21:50:38;;;;;;;11.73;6.63;;;13.70;99.90;;;;;;4951407;29;20032;-91
2021/12/31 21:53:04;;;;;;;12.40;7.20;;;13.60;99.90;;;;;;4951646;29;20078;-90
2021/12/31 21:55:31;;;;;;;16.15;7.97;;;13.70;99.90;;;;;;4951319;28;20063;-90
2021/12/31 21:57:57;;;;;;;15.48;7.70;;;13.70;99.90;;;;;;4935310;29;20040;-90
2021/12/31 22:00:24;;;;;;;12.98;6.82;;;13.70;99.90;;;;;;4935594;29;20031;-90
2021/12/31 22:02:50;;;;;;;11.65;6.32;;;13.70;99.90;;;;;;4935867;29;20457;-91
2021/12/31 22:05:17;;;;;;;13.43;6.65;;;13.70;99.90;;;;;;4951116;28;20139;-90
2021/12/31 22:07:43;;;;;;;15.15;6.43;;;13.70;99.90;;;;;;4936520;29;20038;-91
2021/12/31 22:10:09;;;;;;;11.27;5.80;;;13.60;99.90;;;;;;4935424;29;20032;-89
2021/12/31 22:12:35;;;;;;;11.85;6.65;;;13.60;99.90;;;;;;4934975;29;20028;-90
2021/12/31 22:15:02;;;;;;;11.18;6.00;;;13.60;99.90;;;;;;4935030;29;20126;-91
2021/12/31 22:17:28;;;;;;;14.68;7.53;;;13.60;99.90;;;;;;4951124;28;20039;-90
2021/12/31 22:19:54;;;;;;;16.67;7.60;;;13.70;99.90;;;;;;4951122;28;20174;-91
2021/12/31 22:22:20;;;;;;;16.60;7.13;;;13.60;99.90;;;;;;4935368;29;20363;-90
2021/12/31 22:24:46;;;;;;;13.50;6.35;;;13.60;99.90;;;;;;4934912;29;20506;-91
2021/12/31 22:27:12;;;;;;;14.70;6.22;;;13.70;99.90;;;;;;4934906;29;20118;-90
2021/12/31 22:29:38;;;;;;;12.48;5.68;;;13.60;99.90;;;;;;4934978;29;20042;-90
2021/12/31 22:32:04;;;;;;;11.32;6.00;;;13.70;99.90;;;;;;4951222;28;20035;-90
2021/12/31 22:34:30;;;;;;;13.63;6.30;;;13.70;99.90;;;;;;4950663;28;20032;-89
2021/12/31 22:36:56;;;;;;;12.98;5.82;;;13.70;99.90;;;;;;4950924;28;20062;-91
2021/12/31 22:39:22;;;;;;;11.23;5.65;;;13.70;99.90;;;;;;4935127;29;20148;-90
2021/12/31 22:41:49;;;;;;;12.85;6.22;;;13.60;99.90;;;;;;4934840;29;20055;-91
2021/12/31 22:44:15;;;;;;;10.10;5.95;;;13.60;99.90;;;;;;4950491;28;20447;-91
2021/12/31 22:46:42;;;;;;;12.70;5.75;;;13.60;99.90;;;;;;4934401;29;20036;-91
2021/12/31 22:49:07;;;;;;;16.27;6.45;;;13.60;99.90;;;;;;4934468;29;20039;-91
2021/12/31 22:51:34;;;;;;;12.23;5.78;;;13.50;99.90;;;;;;4950612;28;20040;-91
2021/12/31 22:53:59;;;;;;;15.45;6.43;;;13.60;99.90;;;;;;4934750;29;20114;-91
2021/12/31 22:56:26;;;;;;;15.27;6.20;;;13.60;99.90;;;;;;4934436;29;20478;-91
2021/12/31 22:58:51;;;;;;;15.13;7.00;;;13.60;99.90;;;;;;4950550;28;20105;-91
2021/12/31 23:01:20;;;;;;;16.80;8.00;;;13.60;99.90;;;;;;4934672;29;20494;-91
2021/12/31 23:03:48;;;;;;;17.23;8.07;;;13.70;99.90;;;;;;4934568;29;20028;-90
2021/12/31 23:06:15;;;;;;;87.72;25.83;;;13.70;99.90;;;;;;4950236;28;20040;-90
2021/12/31 23:08:42;;;;;;;23.02;12.60;;;13.70;99.90;;;;;;4934766;29;20102;-92
2021/12/31 23:11:09;;;;;;;33.08;15.05;;;13.60;99.90;;;;;;4950444;28;20031;-90
2021/12/31 23:13:35;;;;;;;56.45;31.42;;;13.70;99.90;;;;;;4950069;28;20028;-90
2021/12/31 23:16:01;;;;;;;75.72;27.08;;;13.70;99.90;;;;;;4950386;28;20054;-90
2021/12/31 23:18:27;;;;;;;98.47;47.72;;;13.70;99.90;;;;;;4950211;28;20024;-90
2021/12/31 23:20:53;;;;;;;141.85;73.60;;;13.60;99.90;;;;;;4935303;29;20032;-90
2021/12/31 23:23:19;;;;;;;29.52;15.45;;;13.60;99.90;;;;;;4950304;29;20043;-90
2021/12/31 23:25:46;;;;;;;51.72;20.67;;;13.60;99.90;;;;;;4934451;29;20031;-90
2021/12/31 23:28:12;;;;;;;28.92;13.35;;;13.60;99.90;;;;;;4934231;29;20126;-91
2021/12/31 23:30:38;;;;;;;23.00;10.50;;;13.60;99.90;;;;;;4934376;29;20175;-90
2021/12/31 23:33:04;;;;;;;22.55;10.68;;;13.60;99.90;;;;;;4950116;28;20478;-90
2021/12/31 23:35:30;;;;;;;20.63;10.30;;;13.60;99.90;;;;;;4949937;28;20119;-90
2021/12/31 23:37:56;;;;;;;24.58;10.35;;;13.60;99.90;;;;;;4934327;29;20122;-90
2021/12/31 23:40:25;;;;;;;21.90;10.63;;;13.60;99.90;;;;;;4934225;29;20046;-90
2021/12/31 23:42:51;;;;;;;18.77;9.93;;;13.60;99.90;;;;;;4934057;29;20083;-91
2021/12/31 23:45:21;;;;;;;25.45;11.88;;;13.50;99.90;;;;;;4934231;29;20036;-91
2021/12/31 23:47:46;;;;;;;25.58;12.55;;;13.50;99.90;;;;;;4949742;28;20038;-90
2021/12/31 23:50:13;;;;;;;25.60;11.82;;;13.50;99.90;;;;;;4949809;28;20401;-91
2021/12/31 23:52:40;;;;;;;24.42;11.68;;;13.50;99.90;;;;;;4949868;28;20034;-91
2021/12/31 23:55:08;;;;;;;23.15;12.07;;;13.40;99.90;;;;;;4949619;28;20039;-91
2021/12/31 23:57:35;;;;;;;25.70;12.77;;;13.50;99.90;;;;;;4934077;29;20046;-90
